Time;durP1;ratioP1;P1;durP2;ratioP2;P2;SDS_P1;SDS_P2;PMS_P1;PMS_P2;Temp;Humidity;BMP_temperature;BMP_pressure;BME280_temperature;BME280_humidity;BME280_pressure;Samples;Min_cycle;Max_cycle;Signal;HPM_P1;HPM_P2
2022/05/26 00:02:23;;;;;;;24.98;12.77;;;13.80;99.90;;;;;;4894580;29;20047;-78
2022/05/26 00:04:49;;;;;;;23.05;12.57;;;13.70;99.90;;;;;;4879269;29;20048;-79
2022/05/26 00:07:15;;;;;;;28.55;13.40;;;13.80;99.90;;;;;;4879175;29;20039;-78
2022/05/26 00:09:42;;;;;;;23.33;13.77;;;13.80;99.90;;;;;;4882308;29;20132;-78
2022/05/26 00:12:10;;;;;;;29.05;13.52;;;13.80;99.90;;;;;;4884353;29;20048;-78
2022/05/26 00:14:37;;;;;;;24.25;13.80;;;13.80;99.90;;;;;;4881921;29;20138;-89
2022/05/26 00:17:04;;;;;;;24.83;14.50;;;13.80;99.90;;;;;;4911778;29;20119;-87
2022/05/26 00:19:30;;;;;;;26.60;13.82;;;13.60;99.90;;;;;;4892770;29;20134;-86
2022/05/26 00:21:56;;;;;;;23.90;13.60;;;13.80;99.90;;;;;;4910751;29;20115;-86
2022/05/26 00:24:23;;;;;;;20.98;12.60;;;13.80;99.90;;;;;;4908045;29;20496;-87
2022/05/26 00:26:49;;;;;;;27.00;12.90;;;13.80;99.90;;;;;;4904631;29;20052;-87
2022/05/26 00:29:14;;;;;;;24.83;13.30;;;13.80;99.90;;;;;;4875790;29;20044;-87
2022/05/26 00:31:41;;;;;;;26.70;13.65;;;13.80;99.90;;;;;;4876515;29;20055;-86
2022/05/26 00:34:07;;;;;;;28.73;14.32;;;13.80;99.90;;;;;;4907344;29;20050;-87
2022/05/26 00:36:42;;;;;;;26.08;14.43;;;13.80;99.90;;;;;;4893595;29;20055;-87
2022/05/26 00:39:14;;;;;;;23.83;13.40;;;13.80;99.90;;;;;;4903822;29;20047;-88
2022/05/26 00:41:47;;;;;;;31.98;14.77;;;13.80;99.90;;;;;;4912129;29;20649;-87
2022/05/26 00:44:16;;;;;;;30.70;14.02;;;13.80;99.90;;;;;;4911061;29;20060;-86
2022/05/26 00:46:56;;;;;;;23.27;13.32;;;13.80;99.90;;;;;;4887331;29;20055;-86
2022/05/26 00:49:53;;;;;;;30.70;14.57;;;13.80;99.90;;;;;;4880193;29;20042;-87
2022/05/26 00:52:23;;;;;;;26.05;14.43;;;13.80;99.90;;;;;;4897116;29;20048;-87
2022/05/26 00:54:52;;;;;;;27.73;14.32;;;13.80;99.90;;;;;;4892173;29;20036;-87
2022/05/26 00:57:25;;;;;;;23.33;13.68;;;13.80;99.90;;;;;;4893467;29;20032;-87
2022/05/26 01:00:14;;;;;;;31.83;14.85;;;13.80;99.90;;;;;;4896752;29;20099;-87
2022/05/26 01:03:13;;;;;;;29.25;15.18;;;13.80;99.90;;;;;;4876697;29;20079;-87
2022/05/26 01:06:06;;;;;;;27.65;13.50;;;13.80;99.90;;;;;;4896736;29;20050;-86
2022/05/26 01:08:38;;;;;;;31.13;14.00;;;13.80;99.90;;;;;;4873607;29;20048;-86
2022/05/26 01:11:05;;;;;;;36.95;13.98;;;13.80;99.90;;;;;;4896591;29;20036;-85
2022/05/26 01:13:32;;;;;;;26.33;14.40;;;13.80;99.90;;;;;;4882642;29;20090;-87
2022/05/26 01:16:08;;;;;;;29.50;14.25;;;13.80;99.90;;;;;;4883321;29;20044;-87
2022/05/26 01:18:43;;;;;;;;;;;13.80;99.90;;;;;;4899806;29;20043;-87
2022/05/26 01:21:15;;;;;;;29.48;13.25;;;13.80;99.90;;;;;;4899913;29;20396;-86
2022/05/26 01:23:59;;;;;;;32.72;13.35;;;13.80;99.90;;;;;;4887642;29;20134;-87
2022/05/26 01:26:59;;;;;;;35.88;14.38;;;13.90;99.90;;;;;;4884817;29;20119;-87
2022/05/26 01:29:40;;;;;;;28.98;14.02;;;13.90;99.90;;;;;;4915026;29;20048;-86
2022/05/26 01:32:23;;;;;;;29.88;13.57;;;13.90;99.90;;;;;;4895122;29;20492;-87
2022/05/26 01:35:12;;;;;;;27.85;13.13;;;13.90;99.90;;;;;;4900921;29;20396;-87
2022/05/26 01:37:38;;;;;;;29.30;12.85;;;13.90;99.90;;;;;;4899400;29;20040;-86
2022/05/26 01:40:19;;;;;;;31.85;12.93;;;13.90;99.90;;;;;;4896179;29;20051;-86
2022/05/26 01:43:15;;;;;;;32.50;13.38;;;13.90;99.90;;;;;;4880708;29;20048;-86
2022/05/26 01:45:50;;;;;;;27.25;13.65;;;13.90;99.90;;;;;;4896417;29;20166;-87
2022/05/26 01:48:39;;;;;;;28.58;13.35;;;13.90;99.90;;;;;;4880312;29;20052;-87
2022/05/26 01:51:23;;;;;;;26.88;11.10;;;13.90;99.90;;;;;;4880439;29;20489;-87
2022/05/26 01:54:14;;;;;;;29.70;12.82;;;14.00;99.90;;;;;;4897218;29;20071;-86
2022/05/26 01:56:52;;;;;;;33.08;11.80;;;14.00;99.90;;;;;;4896993;29;20572;-87
2022/05/26 02:00:01;;;;;;;37.03;11.60;;;14.00;99.90;;;;;;4885461;29;20036;-86
2022/05/26 02:02:34;;;;;;;28.98;11.00;;;14.00;99.90;;;;;;4846828;29;20045;-85
2022/05/26 02:05:07;;;;;;;31.70;10.52;;;14.00;99.90;;;;;;4888337;29;20045;-86
2022/05/26 02:07:55;;;;;;;30.10;9.95;;;14.00;99.90;;;;;;4870720;29;20071;-86
2022/05/26 02:10:28;;;;;;;33.03;10.45;;;14.00;99.90;;;;;;4898499;29;20046;-86
2022/05/26 02:13:03;;;;;;;25.13;10.23;;;14.00;99.90;;;;;;4902697;29;20072;-85
2022/05/26 02:15:38;;;;;;;30.13;9.50;;;14.00;99.90;;;;;;4900957;29;20047;-86
2022/05/26 02:18:17;;;;;;;29.88;10.43;;;14.00;99.90;;;;;;4894561;29;20047;-86
2022/05/26 02:20:54;;;;;;;29.15;9.02;;;14.00;99.90;;;;;;4882115;29;20488;-86
2022/05/26 02:23:26;;;;;;;31.10;9.10;;;14.00;99.90;;;;;;4897625;29;20051;-86
2022/05/26 02:25:53;;;;;;;31.45;9.05;;;14.00;99.90;;;;;;4895555;29;20426;-86
2022/05/26 02:28:19;;;;;;;35.47;9.77;;;14.10;99.90;;;;;;4884893;29;20507;-86
2022/05/26 02:30:46;;;;;;;28.58;8.25;;;14.10;99.90;;;;;;4898725;29;20130;-86
2022/05/26 02:33:15;;;;;;;32.05;9.15;;;14.10;99.90;;;;;;4882874;29;20051;-85
2022/05/26 02:35:50;;;;;;;29.17;8.35;;;14.10;99.90;;;;;;4886006;29;20503;-86
2022/05/26 02:38:23;;;;;;;31.02;8.38;;;14.10;99.90;;;;;;4897262;29;20524;-86
2022/05/26 02:40:50;;;;;;;29.90;7.72;;;14.10;99.90;;;;;;4867634;29;20043;-86
2022/05/26 02:43:20;;;;;;;31.25;9.32;;;14.10;99.90;;;;;;4870590;29;20417;-86
2022/05/26 02:45:55;;;;;;;28.88;8.80;;;14.10;99.90;;;;;;4899020;29;20040;-86
2022/05/26 02:48:58;;;;;;;37.47;9.83;;;14.10;99.90;;;;;;4892274;29;20055;-85
2022/05/26 02:51:28;;;;;;;37.67;8.43;;;14.10;99.90;;;;;;4877940;29;20048;-86
2022/05/26 02:54:08;;;;;;;35.42;8.07;;;14.20;99.90;;;;;;4891047;29;20040;-85
2022/05/26 02:56:45;;;;;;;31.63;7.68;;;14.20;99.90;;;;;;4916201;29;20041;-86
2022/05/26 02:59:24;;;;;;;33.95;7.85;;;14.20;99.90;;;;;;4876917;29;20135;-85
2022/05/26 03:02:09;;;;;;;36.15;7.85;;;14.20;99.90;;;;;;4874524;29;20091;-86
2022/05/26 03:04:43;;;;;;;30.98;7.38;;;14.20;99.90;;;;;;4892492;29;20400;-86
2022/05/26 03:07:13;;;;;;;32.47;7.47;;;14.20;99.90;;;;;;4875292;29;20036;-86
2022/05/26 03:09:42;;;;;;;29.42;6.97;;;14.20;99.90;;;;;;4891270;29;20111;-86
2022/05/26 03:12:25;;;;;;;31.60;7.75;;;14.20;99.90;;;;;;4891799;29;20115;-85
2022/05/26 03:14:51;;;;;;;31.00;6.40;;;14.20;99.90;;;;;;4916363;29;20043;-86
2022/05/26 03:17:17;;;;;;;30.63;6.80;;;14.20;99.90;;;;;;4889223;29;20040;-86
2022/05/26 03:19:43;;;;;;;28.88;6.53;;;13.50;99.90;;;;;;4901129;29;20046;-87
2022/05/26 03:22:09;;;;;;;27.30;5.97;;;14.20;99.90;;;;;;4891722;29;20125;-86
2022/05/26 03:24:34;;;;;;;27.67;5.72;;;14.20;99.90;;;;;;4875985;29;20496;-87
2022/05/26 03:27:00;;;;;;;29.05;5.65;;;14.20;99.90;;;;;;4892631;29;20048;-86
2022/05/26 03:29:26;;;;;;;30.15;5.70;;;14.20;99.90;;;;;;4917566;29;20160;-86
2022/05/26 03:31:51;;;;;;;27.77;5.80;;;14.20;99.90;;;;;;4875942;29;20056;-86
2022/05/26 03:42:30;;;;;;;22.67;4.35;;;14.20;99.90;;;;;;4860888;29;20048;-87
2022/05/26 03:44:57;;;;;;;18.50;3.80;;;14.20;99.90;;;;;;4872877;29;20047;-87
2022/05/26 03:47:23;;;;;;;21.52;4.13;;;14.20;99.90;;;;;;4894891;29;20139;-86
2022/05/26 03:49:49;;;;;;;17.17;4.53;;;14.20;99.90;;;;;;4884185;29;20154;-86
2022/05/26 03:52:15;;;;;;;14.82;3.25;;;14.20;99.90;;;;;;4868765;29;20099;-86
2022/05/26 03:54:41;;;;;;;12.15;3.03;;;14.20;99.90;;;;;;4900469;29;20145;-86
2022/05/26 03:57:06;;;;;;;20.50;3.72;;;14.10;99.90;;;;;;4883224;29;20124;-85
2022/05/26 03:59:33;;;;;;;14.40;2.92;;;14.10;99.90;;;;;;4897776;29;20048;-85
2022/05/26 04:01:59;;;;;;;13.52;3.28;;;14.10;99.90;;;;;;4871081;29;20055;-86
2022/05/26 04:04:26;;;;;;;14.13;3.42;;;14.10;99.90;;;;;;4899929;29;20072;-85
2022/05/26 04:06:52;;;;;;;12.65;3.05;;;14.10;99.90;;;;;;4899325;29;20123;-86
2022/05/26 04:09:17;;;;;;;17.40;3.08;;;14.10;99.90;;;;;;4883299;29;20437;-87
2022/05/26 04:11:43;;;;;;;13.43;2.88;;;14.10;99.90;;;;;;4886311;29;20087;-86
2022/05/26 04:14:09;;;;;;;11.60;2.67;;;14.10;99.90;;;;;;4896974;29;20106;-86
2022/05/26 04:16:35;;;;;;;14.10;3.00;;;14.10;99.90;;;;;;4896447;29;20074;-87
2022/05/26 04:19:01;;;;;;;11.50;3.42;;;14.10;99.90;;;;;;4883730;29;20071;-86
2022/05/26 04:21:27;;;;;;;13.50;2.67;;;14.10;99.90;;;;;;4897013;29;20505;-87
2022/05/26 04:23:53;;;;;;;9.63;2.60;;;14.10;99.90;;;;;;4883984;29;20112;-87
2022/05/26 04:26:20;;;;;;;12.10;2.78;;;14.00;99.90;;;;;;4889928;29;20119;-87
2022/05/26 04:28:45;;;;;;;12.65;2.60;;;14.00;99.90;;;;;;4910369;29;20449;-86
2022/05/26 04:31:11;;;;;;;12.57;2.92;;;14.00;99.90;;;;;;4886329;29;20048;-87
2022/05/26 04:33:37;;;;;;;11.65;2.63;;;14.00;99.90;;;;;;4885424;29;20036;-86
2022/05/26 04:36:06;;;;;;;15.63;3.00;;;14.00;99.90;;;;;;4884950;29;20485;-86
2022/05/26 04:38:33;;;;;;;12.65;2.42;;;14.00;99.90;;;;;;4897563;29;20100;-86
2022/05/26 04:41:00;;;;;;;11.90;2.75;;;14.00;99.90;;;;;;4879046;29;20044;-86
2022/05/26 04:43:26;;;;;;;9.93;2.35;;;14.00;99.90;;;;;;4895487;29;20047;-87
2022/05/26 04:45:52;;;;;;;16.00;2.35;;;14.10;99.90;;;;;;4898872;29;20504;-87
2022/05/26 04:48:21;;;;;;;13.10;2.22;;;14.10;99.90;;;;;;4870102;29;20048;-87
2022/05/26 04:50:49;;;;;;;11.02;2.67;;;14.10;99.90;;;;;;4883262;29;20526;-86
2022/05/26 04:53:15;;;;;;;13.55;2.78;;;14.10;99.90;;;;;;4883907;29;20119;-86
2022/05/26 04:55:41;;;;;;;8.27;2.50;;;14.20;99.90;;;;;;4857921;29;20135;-86
2022/05/26 04:58:07;;;;;;;13.25;2.72;;;14.20;99.90;;;;;;4885398;29;20055;-85
2022/05/26 05:00:33;;;;;;;11.25;2.40;;;14.20;99.90;;;;;;4896264;29;20040;-85
2022/05/26 05:02:59;;;;;;;11.98;2.72;;;14.30;99.90;;;;;;4883031;29;20051;-85
2022/05/26 05:05:25;;;;;;;11.45;2.30;;;14.30;99.90;;;;;;4884158;29;20060;-86
2022/05/26 05:07:51;;;;;;;11.82;2.90;;;14.30;99.90;;;;;;4867472;29;20522;-86
2022/05/26 05:10:16;;;;;;;9.10;2.40;;;14.40;99.90;;;;;;4869657;29;20056;-85
2022/05/26 05:12:43;;;;;;;11.68;2.17;;;14.40;99.90;;;;;;4888250;29;20701;-85
2022/05/26 05:15:15;;;;;;;12.40;2.75;;;14.40;99.90;;;;;;4874878;29;20043;-85
2022/05/26 05:17:41;;;;;;;13.20;2.25;;;14.40;99.90;;;;;;4885965;29;20048;-86
2022/05/26 05:20:07;;;;;;;12.02;2.22;;;14.40;99.90;;;;;;4896357;29;20052;-86
2022/05/26 05:22:48;;;;;;;9.10;2.35;;;14.40;99.90;;;;;;4881750;29;20040;-86
2022/05/26 05:25:23;;;;;;;9.02;1.95;;;14.50;99.90;;;;;;4900502;29;20045;-85
2022/05/26 05:27:56;;;;;;;8.70;2.83;;;14.60;99.90;;;;;;4894543;29;20573;-86
2022/05/26 05:30:27;;;;;;;10.15;1.80;;;14.60;99.90;;;;;;4897492;29;20036;-86
2022/05/26 05:33:02;;;;;;;9.43;1.83;;;14.70;99.90;;;;;;4881989;29;20123;-85
2022/05/26 05:35:34;;;;;;;12.15;2.17;;;14.70;99.90;;;;;;4898087;29;20043;-85
2022/05/26 05:38:01;;;;;;;13.45;2.13;;;14.80;99.90;;;;;;4900325;29;20131;-86
2022/05/26 05:40:27;;;;;;;11.70;2.03;;;14.80;99.90;;;;;;4884288;29;20138;-86
2022/05/26 05:42:53;;;;;;;7.18;1.73;;;14.80;99.90;;;;;;4883010;29;20071;-85
2022/05/26 05:45:18;;;;;;;11.15;2.13;;;14.80;99.90;;;;;;4881846;29;20056;-85
2022/05/26 05:47:44;;;;;;;7.22;1.80;;;14.80;99.90;;;;;;4885278;29;20048;-85
2022/05/26 05:50:10;;;;;;;7.45;1.63;;;14.80;99.90;;;;;;4882090;29;20106;-85
2022/05/26 05:52:36;;;;;;;6.97;1.50;;;14.80;99.90;;;;;;4896646;29;20047;-85
2022/05/26 05:55:04;;;;;;;5.43;1.55;;;14.80;99.90;;;;;;4897959;29;20054;-85
2022/05/26 05:57:30;;;;;;;7.13;1.52;;;14.80;99.90;;;;;;4913924;29;20050;-85
2022/05/26 05:59:56;;;;;;;4.88;1.23;;;14.90;99.90;;;;;;4913367;29;20135;-86
2022/05/26 06:02:21;;;;;;;5.95;1.20;;;14.90;99.90;;;;;;4899939;29;20135;-85
2022/05/26 06:04:47;;;;;;;4.25;1.20;;;15.00;99.90;;;;;;4871068;29;20032;-86
2022/05/26 06:07:15;;;;;;;5.53;1.38;;;15.20;99.90;;;;;;4900604;29;20043;-85
2022/05/26 06:09:42;;;;;;;4.30;1.20;;;15.30;99.90;;;;;;4897876;29;20043;-86
2022/05/26 06:12:08;;;;;;;8.48;1.45;;;15.40;99.90;;;;;;4900511;29;20043;-85
2022/05/26 06:14:34;;;;;;;6.65;1.25;;;15.50;99.90;;;;;;4902505;29;20046;-86
2022/05/26 06:17:00;;;;;;;10.88;1.88;;;15.60;99.90;;;;;;4889784;29;20134;-85
2022/05/26 06:19:26;;;;;;;8.55;1.60;;;15.60;99.90;;;;;;4902439;29;20044;-85
2022/05/26 06:21:52;;;;;;;4.07;1.40;;;15.60;99.90;;;;;;4882608;29;20139;-86
2022/05/26 06:24:22;;;;;;;5.70;1.23;;;15.60;99.90;;;;;;4886363;29;20124;-86
2022/05/26 06:26:48;;;;;;;4.70;1.48;;;15.60;99.90;;;;;;4888628;29;20044;-86
2022/05/26 06:37:28;;;;;;;6.93;1.33;;;15.60;99.90;;;;;;4873535;29;20156;-84
2022/05/26 06:39:55;;;;;;;7.88;1.38;;;15.70;99.90;;;;;;4887487;29;20044;-86
2022/05/26 06:42:24;;;;;;;3.47;0.93;;;15.70;99.90;;;;;;4883608;29;20055;-85
2022/05/26 06:44:50;;;;;;;3.15;0.90;;;15.70;99.90;;;;;;4902684;29;20420;-85
2022/05/26 06:47:20;;;;;;;7.07;1.35;;;15.80;99.90;;;;;;4882544;29;20127;-85
2022/05/26 06:49:46;;;;;;;5.40;1.10;;;15.80;99.90;;;;;;4905007;29;20052;-86
2022/05/26 06:52:14;;;;;;;3.97;1.10;;;15.90;99.90;;;;;;4873501;29;20078;-85
2022/05/26 06:54:43;;;;;;;4.07;1.30;;;15.90;99.90;;;;;;4901195;29;20036;-85
2022/05/26 06:57:10;;;;;;;5.18;1.13;;;15.90;99.90;;;;;;4887447;29;20051;-85
2022/05/26 06:59:36;;;;;;;8.63;1.25;;;15.90;99.90;;;;;;4916269;29;20107;-85
2022/05/26 07:02:04;;;;;;;4.13;0.93;;;16.00;99.90;;;;;;4911398;29;20044;-84
2022/05/26 07:04:32;;;;;;;3.95;1.00;;;16.00;99.90;;;;;;4913169;29;20036;-85
2022/05/26 07:06:58;;;;;;;8.23;1.10;;;16.00;99.90;;;;;;4905561;29;20044;-85
2022/05/26 07:09:24;;;;;;;6.43;1.08;;;16.00;99.90;;;;;;4922168;29;20064;-85
2022/05/26 07:11:51;;;;;;;5.00;1.00;;;16.00;99.90;;;;;;4916653;29;20056;-85
2022/05/26 07:14:18;;;;;;;4.53;1.10;;;16.00;99.90;;;;;;4891316;29;20044;-85
2022/05/26 07:16:45;;;;;;;7.13;1.38;;;16.00;99.90;;;;;;4882678;29;20163;-86
2022/05/26 07:19:12;;;;;;;6.25;1.33;;;16.10;99.90;;;;;;4902439;29;20040;-87
2022/05/26 07:21:39;;;;;;;5.28;1.15;;;16.10;99.90;;;;;;4886940;29;20047;-85
2022/05/26 07:24:05;;;;;;;7.20;1.13;;;16.20;99.90;;;;;;4887774;29;20040;-85
2022/05/26 07:26:32;;;;;;;7.95;1.08;;;16.20;99.90;;;;;;4885050;29;20039;-85
2022/05/26 07:28:59;;;;;;;4.68;1.20;;;16.20;99.90;;;;;;4883354;29;20036;-88
2022/05/26 07:31:25;;;;;;;7.50;1.30;;;16.30;99.90;;;;;;4887714;29;20096;-87
2022/05/26 07:33:51;;;;;;;4.50;1.10;;;16.40;99.90;;;;;;4888733;29;20059;-86
2022/05/26 07:41:48;;;;;;;5.40;1.50;;;16.60;99.90;;;;;;4902949;29;20055;-87
2022/05/26 07:44:16;;;;;;;6.30;1.15;;;16.70;99.90;;;;;;4900719;29;20048;-86
2022/05/26 07:46:42;;;;;;;4.55;1.10;;;16.90;99.90;;;;;;4897458;29;20552;-86
2022/05/26 07:49:08;;;;;;;5.30;1.00;;;17.10;99.90;;;;;;4886769;29;20164;-86
2022/05/26 07:51:34;;;;;;;4.45;1.13;;;17.20;99.90;;;;;;4886247;29;20398;-86
2022/05/26 07:54:00;;;;;;;5.20;1.30;;;17.20;99.90;;;;;;4885137;29;20043;-84
2022/05/26 07:56:33;;;;;;;7.35;1.20;;;17.30;99.90;;;;;;4900506;29;20049;-84
2022/05/26 07:58:59;;;;;;;7.20;1.30;;;17.50;99.90;;;;;;4887385;29;20047;-83
2022/05/26 08:01:25;;;;;;;3.60;1.10;;;17.80;99.90;;;;;;4897737;29;20404;-83
2022/05/26 08:03:53;;;;;;;5.90;1.00;;;18.10;99.90;;;;;;4893968;29;20080;-85
2022/05/26 08:06:20;;;;;;;3.28;1.20;;;18.40;99.90;;;;;;4885389;29;20673;-84
2022/05/26 08:08:46;;;;;;;4.63;0.95;;;18.70;99.90;;;;;;4886565;29;20053;-86
2022/05/26 08:11:11;;;;;;;3.20;1.08;;;18.90;99.90;;;;;;4885108;29;20062;-88
2022/05/26 08:13:37;;;;;;;5.82;1.23;;;19.20;99.90;;;;;;4887618;29;20044;-86
2022/05/26 08:16:05;;;;;;;4.00;1.10;;;19.30;99.90;;;;;;4900950;29;20048;-86
2022/05/26 08:18:31;;;;;;;5.40;1.20;;;19.20;99.90;;;;;;4897646;29;20405;-87
2022/05/26 08:21:09;;;;;;;2.33;0.90;;;19.20;99.90;;;;;;4886061;29;20039;-85
2022/05/26 08:23:35;;;;;;;3.88;0.80;;;19.20;99.90;;;;;;4888092;29;20045;-86
2022/05/26 08:26:01;;;;;;;5.55;1.10;;;19.20;99.90;;;;;;4887307;29;20098;-86
2022/05/26 08:28:26;;;;;;;5.57;1.08;;;19.20;99.90;;;;;;4892819;29;20489;-86
2022/05/26 08:30:52;;;;;;;4.82;0.82;;;19.30;99.90;;;;;;4884954;29;20048;-86
2022/05/26 08:33:18;;;;;;;4.85;1.13;;;19.50;99.90;;;;;;4878700;29;20051;-85
2022/05/26 08:35:43;;;;;;;3.35;1.13;;;19.60;99.90;;;;;;4875739;29;20049;-86
2022/05/26 08:38:09;;;;;;;6.55;1.08;;;19.50;99.90;;;;;;4878616;29;20043;-86
2022/05/26 08:40:57;;;;;;;4.20;0.88;;;19.60;99.90;;;;;;4891520;29;20047;-86
2022/05/26 08:43:44;;;;;;;4.43;1.00;;;19.60;99.90;;;;;;4900646;29;20052;-86
2022/05/26 08:46:16;;;;;;;3.67;0.80;;;19.80;99.90;;;;;;4895521;29;20476;-86
2022/05/26 08:49:08;;;;;;;5.50;0.90;;;20.10;99.90;;;;;;4892540;29;20051;-87
2022/05/26 08:52:00;;;;;;;3.72;1.00;;;20.30;98.60;;;;;;4862363;29;20048;-86
2022/05/26 08:54:35;;;;;;;5.50;0.80;;;20.50;99.90;;;;;;4896525;29;20378;-87
2022/05/26 08:57:02;;;;;;;;;;;20.60;99.40;;;;;;4894817;29;20051;-86
2022/05/26 08:59:42;;;;;;;5.75;0.98;;;20.80;96.80;;;;;;4904078;29;20493;-88
2022/05/26 09:02:21;;;;;;;1.77;0.73;;;20.70;94.60;;;;;;4900059;29;20048;-85
2022/05/26 09:04:46;;;;;;;3.05;0.82;;;20.50;97.00;;;;;;4905041;29;20036;-87
2022/05/26 09:12:57;;;;;;;4.25;1.00;;;20.70;97.00;;;;;;4899570;29;20051;-86
2022/05/26 09:15:24;;;;;;;4.35;1.10;;;20.60;96.80;;;;;;4900711;29;20108;-86
2022/05/26 09:17:49;;;;;;;3.05;0.95;;;20.50;95.20;;;;;;4888213;29;20056;-85
2022/05/26 09:20:31;;;;;;;5.07;0.95;;;20.30;96.20;;;;;;4880771;29;20519;-84
2022/05/26 09:23:20;;;;;;;3.45;1.00;;;20.20;95.00;;;;;;4901339;29;20067;-85
2022/05/26 09:26:00;;;;;;;3.67;0.90;;;20.00;96.50;;;;;;4898140;29;20041;-88
2022/05/26 09:28:48;;;;;;;5.78;1.10;;;19.80;95.50;;;;;;4880129;29;20048;-88
2022/05/26 09:31:34;;;;;;;4.95;1.00;;;19.60;96.20;;;;;;4886840;29;20064;-84
2022/05/26 09:34:34;;;;;;;3.38;0.93;;;19.40;97.20;;;;;;4896171;29;20124;-87
2022/05/26 09:37:03;;;;;;;5.47;0.98;;;19.20;98.20;;;;;;4904750;29;20115;-87
2022/05/26 09:39:42;;;;;;;3.78;1.00;;;19.20;99.90;;;;;;4901013;29;20119;-87
2022/05/26 09:42:17;;;;;;;2.78;0.88;;;19.20;99.90;;;;;;4885856;29;20044;-87
2022/05/26 09:45:04;;;;;;;4.20;1.08;;;19.20;99.90;;;;;;4890232;29;20051;-89
2022/05/26 09:47:53;;;;;;;3.08;1.23;;;19.00;99.60;;;;;;4898184;29;20052;-86
2022/05/26 09:50:31;;;;;;;2.65;0.80;;;18.80;99.10;;;;;;4905588;29;20040;-87
2022/05/26 09:52:57;;;;;;;4.63;1.20;;;18.70;99.90;;;;;;4879505;29;20071;-87
2022/05/26 09:55:27;;;;;;;5.85;1.35;;;18.60;99.90;;;;;;4889114;29;20084;-87
2022/05/26 09:58:11;;;;;;;6.15;1.17;;;18.60;99.90;;;;;;4904370;29;20119;-87
2022/05/26 10:00:48;;;;;;;3.20;1.13;;;18.50;99.90;;;;;;4900702;29;20107;-88
2022/05/26 10:03:52;;;;;;;6.32;1.65;;;18.40;99.90;;;;;;4882323;29;20052;-87
2022/05/26 10:06:32;;;;;;;3.17;1.20;;;18.40;99.90;;;;;;4887656;29;20048;-87
2022/05/26 10:09:06;;;;;;;4.15;1.58;;;18.60;99.90;;;;;;4909330;29;20097;-87
2022/05/26 10:12:06;;;;;;;6.78;1.48;;;18.80;99.90;;;;;;4910237;29;20156;-86
2022/05/26 10:15:02;;;;;;;7.70;1.70;;;19.10;99.90;;;;;;4894471;29;20050;-87
2022/05/26 10:17:46;;;;;;;5.30;1.42;;;19.20;99.90;;;;;;4878641;29;20059;-88
2022/05/26 10:20:36;;;;;;;4.78;1.38;;;19.20;99.90;;;;;;4901387;29;20048;-88
2022/05/26 10:23:17;;;;;;;5.03;1.20;;;19.20;99.90;;;;;;4909249;29;20051;-88
2022/05/26 10:25:58;;;;;;;3.53;1.23;;;19.20;99.90;;;;;;4888539;29;20040;-87
2022/05/26 10:28:42;;;;;;;8.57;1.63;;;19.30;99.90;;;;;;4888743;29;20561;-87
2022/05/26 10:31:45;;;;;;;4.72;1.23;;;19.30;99.90;;;;;;4893884;29;21043;-88
2022/05/26 10:34:29;;;;;;;8.00;1.60;;;19.30;99.90;;;;;;4900933;29;20083;-86
2022/05/26 10:37:13;;;;;;;5.28;1.40;;;19.30;99.90;;;;;;4906958;29;20040;-87
2022/05/26 10:39:55;;;;;;;3.33;1.52;;;19.40;99.90;;;;;;4903942;29;20405;-86
2022/05/26 10:42:24;;;;;;;6.43;1.50;;;19.50;99.90;;;;;;4885711;29;20040;-86
2022/05/26 10:45:08;;;;;;;4.85;1.50;;;19.50;99.90;;;;;;4901549;29;20044;-87
2022/05/26 10:47:41;;;;;;;5.75;1.70;;;19.60;99.90;;;;;;4909356;29;20060;-88
2022/05/26 10:50:20;;;;;;;4.47;1.38;;;19.50;99.90;;;;;;4904733;29;20037;-88
2022/05/26 10:52:56;;;;;;;5.38;1.42;;;19.60;99.90;;;;;;4883529;29;20504;-89
2022/05/26 10:55:37;;;;;;;6.68;1.50;;;19.60;99.90;;;;;;4907812;29;20075;-87
2022/05/26 10:58:18;;;;;;;6.05;1.45;;;19.50;99.90;;;;;;4912788;29;20052;-87
2022/05/26 11:00:48;;;;;;;4.10;1.83;;;19.40;99.90;;;;;;4882736;29;20553;-88
2022/05/26 11:03:20;;;;;;;3.63;1.10;;;19.40;99.90;;;;;;4906060;29;20128;-89
2022/05/26 11:06:18;;;;;;;3.58;1.00;;;19.40;99.90;;;;;;4899284;29;20717;-87
2022/05/26 11:08:54;;;;;;;4.65;1.15;;;19.50;99.90;;;;;;4897197;29;20036;-87
2022/05/26 11:11:47;;;;;;;5.70;1.30;;;19.60;99.90;;;;;;4883227;29;20040;-87
2022/05/26 11:17:21;;;;;;;5.22;1.30;;;19.60;98.70;;;;;;4892106;29;20123;-87
2022/05/26 11:20:26;;;;;;;4.22;1.10;;;19.30;99.90;;;;;;4895062;29;20519;-86
2022/05/26 11:22:52;;;;;;;4.53;1.23;;;19.30;99.90;;;;;;4860296;29;20052;-88
2022/05/26 11:25:50;;;;;;;7.63;1.10;;;19.40;99.90;;;;;;4899340;29;20047;-88
2022/05/26 11:28:42;;;;;;;3.33;1.17;;;19.40;99.90;;;;;;4899246;29;20477;-88
2022/05/26 11:37:15;;;;;;;5.30;1.30;;;19.60;99.50;;;;;;4895521;29;20059;-87
2022/05/26 11:39:43;;;;;;;6.68;1.65;;;19.60;99.90;;;;;;4896557;29;20062;-88
2022/05/26 11:42:14;;;;;;;7.15;1.58;;;19.70;99.90;;;;;;4904530;29;20044;-87
2022/05/26 11:44:43;;;;;;;6.38;1.50;;;19.90;99.90;;;;;;4886650;29;20040;-89
2022/05/26 11:47:52;;;;;;;5.65;1.58;;;20.00;99.90;;;;;;4898055;29;20139;-86
2022/05/26 11:50:51;;;;;;;6.60;1.52;;;20.20;99.90;;;;;;4828469;29;20126;-87
2022/05/26 11:53:36;;;;;;;4.55;1.55;;;20.20;99.90;;;;;;4903850;29;20048;-87
2022/05/26 11:56:23;;;;;;;5.05;1.48;;;20.30;98.70;;;;;;4905123;29;20519;-87
2022/05/26 11:59:26;;;;;;;5.38;1.33;;;20.30;99.90;;;;;;4890386;29;20136;-87
2022/05/26 12:02:00;;;;;;;5.13;1.25;;;20.50;98.60;;;;;;4906425;29;20032;-86
2022/05/26 12:04:41;;;;;;;4.03;0.80;;;20.60;98.20;;;;;;4914564;29;20036;-86
2022/05/26 12:07:21;;;;;;;5.75;1.30;;;20.60;95.90;;;;;;4901746;29;20052;-87
2022/05/26 12:09:57;;;;;;;6.28;1.30;;;20.50;95.40;;;;;;4900133;29;20052;-87
2022/05/26 12:12:23;;;;;;;2.65;1.10;;;20.50;96.30;;;;;;4889285;29;20139;-88
2022/05/26 12:14:55;;;;;;;4.78;1.10;;;20.60;96.80;;;;;;4894611;29;20044;-87
2022/05/26 12:17:43;;;;;;;5.72;1.23;;;20.60;96.70;;;;;;4908010;29;20041;-87
2022/05/26 12:20:12;;;;;;;4.30;1.08;;;20.70;96.60;;;;;;4901252;29;20044;-88
2022/05/26 12:22:47;;;;;;;3.83;1.10;;;20.80;96.20;;;;;;4901902;29;20426;-87
2022/05/26 12:25:27;;;;;;;4.45;1.17;;;20.90;95.00;;;;;;4889479;29;20059;-88
2022/05/26 12:27:56;;;;;;;5.03;1.40;;;20.90;92.90;;;;;;4903212;29;20107;-88
2022/05/26 12:30:46;;;;;;;4.03;1.10;;;20.90;93.80;;;;;;4901523;29;20560;-85
2022/05/26 12:33:21;;;;;;;7.95;1.75;;;20.80;94.30;;;;;;4896984;29;20044;-87
2022/05/26 12:35:58;;;;;;;9.18;1.75;;;20.90;93.10;;;;;;4896549;29;20063;-88
2022/05/26 12:38:49;;;;;;;5.55;1.40;;;21.30;94.70;;;;;;4900829;29;20044;-87
2022/05/26 12:41:38;;;;;;;5.95;1.60;;;21.60;94.00;;;;;;4901733;29;20497;-87
2022/05/26 12:44:19;;;;;;;4.55;1.40;;;21.60;92.80;;;;;;4908590;29;20044;-87
2022/05/26 12:47:09;;;;;;;5.53;1.52;;;21.70;93.80;;;;;;4909805;29;20056;-86
2022/05/26 12:49:46;;;;;;;8.77;1.60;;;21.90;90.80;;;;;;4882461;29;20037;-87
2022/05/26 12:52:24;;;;;;;7.03;1.50;;;21.90;91.30;;;;;;4876469;29;20059;-87
2022/05/26 12:54:57;;;;;;;7.80;1.80;;;22.10;87.90;;;;;;4861920;29;20136;-87
2022/05/26 12:57:26;;;;;;;7.50;1.60;;;22.40;90.90;;;;;;4872409;29;20049;-88
2022/05/26 13:00:20;;;;;;;6.25;1.50;;;22.60;90.80;;;;;;4878534;29;20505;-87
2022/05/26 13:02:50;;;;;;;6.32;1.42;;;23.00;88.90;;;;;;4909441;29;20055;-88
2022/05/26 13:05:17;;;;;;;8.75;1.63;;;23.20;88.80;;;;;;4882846;29;20473;-87
2022/05/26 13:07:47;;;;;;;8.95;1.60;;;23.20;88.90;;;;;;4881889;29;20040;-87
2022/05/26 13:10:14;;;;;;;6.68;1.52;;;23.30;88.50;;;;;;4868859;29;20044;-87
2022/05/26 13:12:40;;;;;;;6.35;1.48;;;23.40;86.30;;;;;;4879155;29;20104;-86
2022/05/26 13:15:06;;;;;;;5.97;1.50;;;23.50;84.40;;;;;;4875382;29;20045;-87
2022/05/26 13:17:32;;;;;;;4.43;1.40;;;23.20;81.40;;;;;;4894274;29;20051;-87
2022/05/26 13:20:00;;;;;;;5.72;1.75;;;23.00;81.50;;;;;;4865721;29;20128;-87
2022/05/26 13:22:30;;;;;;;5.85;1.30;;;22.70;82.10;;;;;;4902349;29;20060;-88
2022/05/26 13:25:10;;;;;;;6.35;1.50;;;22.50;84.80;;;;;;4893638;29;20404;-87
2022/05/26 13:28:04;;;;;;;9.20;2.00;;;22.50;84.80;;;;;;4881876;29;20042;-87
2022/05/26 13:33:39;;;;;;;5.43;1.67;;;22.00;85.30;;;;;;4877148;29;20052;-87
2022/05/26 13:36:05;;;;;;;9.02;2.22;;;21.90;87.80;;;;;;4882998;29;20075;-87
2022/05/26 13:38:37;;;;;;;6.88;1.70;;;21.80;90.00;;;;;;4886318;29;20040;-88
2022/05/26 13:41:08;;;;;;;8.77;2.08;;;21.60;90.40;;;;;;4875697;29;20117;-87
2022/05/26 13:43:38;;;;;;;7.05;1.90;;;21.40;90.30;;;;;;4892987;29;20055;-87
2022/05/26 13:46:06;;;;;;;6.40;1.90;;;21.30;90.90;;;;;;4880408;29;22091;-87
2022/05/26 13:48:42;;;;;;;9.30;1.80;;;21.20;91.10;;;;;;4868045;29;20385;-88
2022/05/26 13:51:26;;;;;;;10.90;2.30;;;21.20;91.40;;;;;;4880602;29;20047;-87
2022/05/26 13:54:20;;;;;;;10.60;2.97;;;21.10;91.00;;;;;;4866364;29;20663;-88